Riverside, Wyoming
Current Conditions -  °F | °C
As of 7:55 PM on Tuesday 25 Nov 2014 (Local Time) from KSAA Reporting Station
Overcast Overcast  
Wind Chill: 23°   Ceiling: 5000
Heat Index: 36°   Visibility: 10mi
Dew Point: 28°   Wind: 28mph
Humidity: 75%   Direction: 260°W
Pressure: 30.04"   Gusts: 33mph
Location:  41.1336°N, 106.799°W
Report Text: KSAA 260255Z AUTO 26024G29KT 10SM SCT034 OVC050 02/M02 A3004 RMK AO2
Loading
Personal Weather Stations






























Interactive Weather Map New forecast layout! Learn more

10-Day Weather Forecast

Advertisements
Track Severe Weather on mobile